Аэропорт: Атырау. Атырау

ICAO: UATG

METAR:
2019-07-23 18:30:00
UATG 231830Z 03005MPS CAVOK 28/08 Q1011 R32/CLRD70 NOSIG RMK QFE760/1013
METAR:
2019-07-23 17:01:00
TAF UATG 231701Z 2318/2418 02004MPS 9999 SCT033 TX33/2411Z TN21/2401Z BECMG 2320/2321 05010MPS BECMG 2414/2415 03005MPS